sensor_id;sensor_type;location;lat;lon;timestamp;temperature;humidity
51839;DHT22;37886;53.174;6.368;2022-07-29T00:01:22;14.20;99.90
51839;DHT22;37886;53.174;6.368;2022-07-29T00:03:48;14.20;99.90
51839;DHT22;37886;53.174;6.368;2022-07-29T00:06:14;14.10;99.90
51839;DHT22;37886;53.174;6.368;2022-07-29T00:08:40;14.20;99.90
51839;DHT22;37886;53.174;6.368;2022-07-29T00:11:06;14.20;99.90
51839;DHT22;37886;53.174;6.368;2022-07-29T00:13:31;14.20;99.90
51839;DHT22;37886;53.174;6.368;2022-07-29T00:15:57;14.10;99.90
51839;DHT22;37886;53.174;6.368;2022-07-29T00:18:23;14.20;99.90
51839;DHT22;37886;53.174;6.368;2022-07-29T00:20:49;14.20;99.90
51839;DHT22;37886;53.174;6.368;2022-07-29T00:23:15;14.20;99.90
51839;DHT22;37886;53.174;6.368;2022-07-29T00:25:40;14.20;99.90
51839;DHT22;37886;53.174;6.368;2022-07-29T00:28:06;14.10;99.90
51839;DHT22;37886;53.174;6.368;2022-07-29T00:30:32;14.10;99.90
51839;DHT22;37886;53.174;6.368;2022-07-29T00:32:57;14.20;99.90
51839;DHT22;37886;53.174;6.368;2022-07-29T00:35:23;14.20;99.90
51839;DHT22;37886;53.174;6.368;2022-07-29T00:38:07;14.20;99.90
51839;DHT22;37886;53.174;6.368;2022-07-29T00:40:34;14.20;99.90
51839;DHT22;37886;53.174;6.368;2022-07-29T00:42:59;14.20;99.90
51839;DHT22;37886;53.174;6.368;2022-07-29T00:45:25;14.20;99.90
51839;DHT22;37886;53.174;6.368;2022-07-29T00:47:51;14.20;99.90
51839;DHT22;37886;53.174;6.368;2022-07-29T00:50:17;14.20;99.90
51839;DHT22;37886;53.174;6.368;2022-07-29T00:52:43;14.20;99.90
51839;DHT22;37886;53.174;6.368;2022-07-29T00:55:14;14.30;99.90
51839;DHT22;37886;53.174;6.368;2022-07-29T00:57:42;14.30;99.90
51839;DHT22;37886;53.174;6.368;2022-07-29T01:00:11;14.30;99.90
51839;DHT22;37886;53.174;6.368;2022-07-29T01:02:38;14.30;99.90
51839;DHT22;37886;53.174;6.368;2022-07-29T01:05:04;14.30;99.90
51839;DHT22;37886;53.174;6.368;2022-07-29T01:07:33;14.30;99.90
51839;DHT22;37886;53.174;6.368;2022-07-29T01:10:02;14.40;99.90
51839;DHT22;37886;53.174;6.368;2022-07-29T01:12:30;14.30;99.90
51839;DHT22;37886;53.174;6.368;2022-07-29T01:14:58;14.40;99.90
51839;DHT22;37886;53.174;6.368;2022-07-29T01:17:39;14.40;99.90
51839;DHT22;37886;53.174;6.368;2022-07-29T01:20:13;14.40;99.90
51839;DHT22;37886;53.174;6.368;2022-07-29T01:31:25;14.40;99.90
51839;DHT22;37886;53.174;6.368;2022-07-29T01:33:58;14.40;99.90
51839;DHT22;37886;53.174;6.368;2022-07-29T01:36:43;14.40;99.90
51839;DHT22;37886;53.174;6.368;2022-07-29T01:39:14;14.40;99.90
51839;DHT22;37886;53.174;6.368;2022-07-29T01:41:50;14.30;99.90
51839;DHT22;37886;53.174;6.368;2022-07-29T01:44:31;14.30;99.90
51839;DHT22;37886;53.174;6.368;2022-07-29T01:47:00;14.30;99.90
51839;DHT22;37886;53.174;6.368;2022-07-29T01:49:29;14.30;99.90
51839;DHT22;37886;53.174;6.368;2022-07-29T01:52:07;14.30;99.90
51839;DHT22;37886;53.174;6.368;2022-07-29T01:54:39;14.20;99.90
51839;DHT22;37886;53.174;6.368;2022-07-29T01:57:14;14.20;99.90
51839;DHT22;37886;53.174;6.368;2022-07-29T01:59:41;14.20;99.90
51839;DHT22;37886;53.174;6.368;2022-07-29T02:02:10;14.20;99.90
51839;DHT22;37886;53.174;6.368;2022-07-29T02:04:37;14.20;99.90
51839;DHT22;37886;53.174;6.368;2022-07-29T02:07:05;14.20;99.90
51839;DHT22;37886;53.174;6.368;2022-07-29T02:09:35;14.20;99.90
51839;DHT22;37886;53.174;6.368;2022-07-29T02:12:03;14.30;99.90
51839;DHT22;37886;53.174;6.368;2022-07-29T02:14:33;14.30;99.90
51839;DHT22;37886;53.174;6.368;2022-07-29T02:17:00;14.30;99.90
51839;DHT22;37886;53.174;6.368;2022-07-29T02:19:27;14.30;99.90
51839;DHT22;37886;53.174;6.368;2022-07-29T02:21:56;14.30;99.90
51839;DHT22;37886;53.174;6.368;2022-07-29T02:24:23;14.30;99.90
51839;DHT22;37886;53.174;6.368;2022-07-29T02:26:51;14.40;99.90
51839;DHT22;37886;53.174;6.368;2022-07-29T02:29:21;14.30;99.90
51839;DHT22;37886;53.174;6.368;2022-07-29T02:31:48;14.40;99.90
51839;DHT22;37886;53.174;6.368;2022-07-29T02:34:15;14.40;99.90
51839;DHT22;37886;53.174;6.368;2022-07-29T02:36:43;14.40;99.90
51839;DHT22;37886;53.174;6.368;2022-07-29T02:39:11;14.40;99.90
51839;DHT22;37886;53.174;6.368;2022-07-29T02:41:42;14.50;99.90
51839;DHT22;37886;53.174;6.368;2022-07-29T02:44:18;14.40;99.90
51839;DHT22;37886;53.174;6.368;2022-07-29T02:49:41;14.40;99.90
51839;DHT22;37886;53.174;6.368;2022-07-29T02:55:54;14.40;99.90
51839;DHT22;37886;53.174;6.368;2022-07-29T03:01:02;14.40;99.90
51839;DHT22;37886;53.174;6.368;2022-07-29T03:03:35;14.30;99.90
51839;DHT22;37886;53.174;6.368;2022-07-29T03:06:03;14.40;99.90
51839;DHT22;37886;53.174;6.368;2022-07-29T03:08:29;14.40;99.90
51839;DHT22;37886;53.174;6.368;2022-07-29T03:10:56;14.40;99.90
51839;DHT22;37886;53.174;6.368;2022-07-29T03:13:22;14.30;99.90
51839;DHT22;37886;53.174;6.368;2022-07-29T03:15:49;14.40;99.90
51839;DHT22;37886;53.174;6.368;2022-07-29T03:18:15;14.30;99.90
51839;DHT22;37886;53.174;6.368;2022-07-29T03:20:41;14.30;99.90
51839;DHT22;37886;53.174;6.368;2022-07-29T03:23:08;14.30;99.90
51839;DHT22;37886;53.174;6.368;2022-07-29T03:25:34;14.30;99.90
51839;DHT22;37886;53.174;6.368;2022-07-29T03:28:00;14.30;99.90
51839;DHT22;37886;53.174;6.368;2022-07-29T03:30:26;14.30;99.90
51839;DHT22;37886;53.174;6.368;2022-07-29T03:32:52;14.30;99.90
51839;DHT22;37886;53.174;6.368;2022-07-29T03:35:19;14.30;99.90
51839;DHT22;37886;53.174;6.368;2022-07-29T03:37:45;14.40;99.90
51839;DHT22;37886;53.174;6.368;2022-07-29T03:40:35;14.40;99.90
51839;DHT22;37886;53.174;6.368;2022-07-29T03:42:59;14.30;99.90
51839;DHT22;37886;53.174;6.368;2022-07-29T03:45:26;14.30;99.90
51839;DHT22;37886;53.174;6.368;2022-07-29T03:47:59;14.40;99.90
51839;DHT22;37886;53.174;6.368;2022-07-29T03:50:28;14.40;99.90
51839;DHT22;37886;53.174;6.368;2022-07-29T03:52:54;14.40;99.90
51839;DHT22;37886;53.174;6.368;2022-07-29T03:55:20;14.40;99.90
51839;DHT22;37886;53.174;6.368;2022-07-29T03:57:46;14.40;99.90
51839;DHT22;37886;53.174;6.368;2022-07-29T04:00:14;14.40;99.90
51839;DHT22;37886;53.174;6.368;2022-07-29T04:02:41;14.50;99.90
51839;DHT22;37886;53.174;6.368;2022-07-29T04:05:13;14.50;99.90
51839;DHT22;37886;53.174;6.368;2022-07-29T04:07:39;14.40;99.90
51839;DHT22;37886;53.174;6.368;2022-07-29T04:10:05;14.50;99.90
51839;DHT22;37886;53.174;6.368;2022-07-29T04:12:31;14.50;99.90
51839;DHT22;37886;53.174;6.368;2022-07-29T04:14:57;14.50;99.90
51839;DHT22;37886;53.174;6.368;2022-07-29T04:17:22;14.50;99.90
51839;DHT22;37886;53.174;6.368;2022-07-29T04:19:48;14.50;99.90
51839;DHT22;37886;53.174;6.368;2022-07-29T04:22:14;14.50;99.90
51839;DHT22;37886;53.174;6.368;2022-07-29T04:24:39;14.50;99.90
51839;DHT22;37886;53.174;6.368;2022-07-29T04:27:05;14.50;99.90
51839;DHT22;37886;53.174;6.368;2022-07-29T04:29:31;14.50;99.90
51839;DHT22;37886;53.174;6.368;2022-07-29T04:31:56;14.50;99.90
51839;DHT22;37886;53.174;6.368;2022-07-29T04:34:22;14.50;99.90
51839;DHT22;37886;53.174;6.368;2022-07-29T04:36:48;14.50;99.90
51839;DHT22;37886;53.174;6.368;2022-07-29T04:39:13;14.50;99.90
51839;DHT22;37886;53.174;6.368;2022-07-29T04:41:40;14.60;99.90
51839;DHT22;37886;53.174;6.368;2022-07-29T04:44:05;14.60;99.90
51839;DHT22;37886;53.174;6.368;2022-07-29T04:46:31;14.60;99.90
51839;DHT22;37886;53.174;6.368;2022-07-29T04:48:57;14.60;99.90
51839;DHT22;37886;53.174;6.368;2022-07-29T04:51:23;14.60;99.90
51839;DHT22;37886;53.174;6.368;2022-07-29T04:53:49;14.70;99.90
51839;DHT22;37886;53.174;6.368;2022-07-29T04:56:14;14.70;99.90
51839;DHT22;37886;53.174;6.368;2022-07-29T04:58:40;14.70;99.90
51839;DHT22;37886;53.174;6.368;2022-07-29T05:01:05;14.80;99.90
51839;DHT22;37886;53.174;6.368;2022-07-29T05:03:31;14.80;99.90
51839;DHT22;37886;53.174;6.368;2022-07-29T05:05:57;14.80;99.90
51839;DHT22;37886;53.174;6.368;2022-07-29T05:08:22;14.90;99.90
51839;DHT22;37886;53.174;6.368;2022-07-29T05:10:48;14.90;99.90
51839;DHT22;37886;53.174;6.368;2022-07-29T05:13:14;14.90;99.90
51839;DHT22;37886;53.174;6.368;2022-07-29T05:15:39;15.00;99.90
51839;DHT22;37886;53.174;6.368;2022-07-29T05:18:06;15.00;99.90
51839;DHT22;37886;53.174;6.368;2022-07-29T05:20:32;15.10;99.90
51839;DHT22;37886;53.174;6.368;2022-07-29T05:23:00;15.20;99.90
51839;DHT22;37886;53.174;6.368;2022-07-29T05:25:27;15.20;99.90
51839;DHT22;37886;53.174;6.368;2022-07-29T05:27:53;15.20;99.90
51839;DHT22;37886;53.174;6.368;2022-07-29T05:30:19;15.30;99.90
51839;DHT22;37886;53.174;6.368;2022-07-29T05:32:45;15.40;99.90
51839;DHT22;37886;53.174;6.368;2022-07-29T05:35:11;15.40;99.90
51839;DHT22;37886;53.174;6.368;2022-07-29T05:37:37;15.50;99.90
51839;DHT22;37886;53.174;6.368;2022-07-29T05:40:03;15.50;99.90
51839;DHT22;37886;53.174;6.368;2022-07-29T05:42:30;15.50;99.90
51839;DHT22;37886;53.174;6.368;2022-07-29T05:44:55;15.60;99.90
51839;DHT22;37886;53.174;6.368;2022-07-29T05:47:22;15.60;99.90
51839;DHT22;37886;53.174;6.368;2022-07-29T05:49:48;15.60;99.90
51839;DHT22;37886;53.174;6.368;2022-07-29T05:52:15;15.70;99.90
51839;DHT22;37886;53.174;6.368;2022-07-29T05:54:40;15.70;99.90
51839;DHT22;37886;53.174;6.368;2022-07-29T05:57:06;15.70;99.90
51839;DHT22;37886;53.174;6.368;2022-07-29T05:59:38;15.80;99.90
51839;DHT22;37886;53.174;6.368;2022-07-29T06:02:04;15.90;99.90
51839;DHT22;37886;53.174;6.368;2022-07-29T06:04:31;15.90;99.90
51839;DHT22;37886;53.174;6.368;2022-07-29T06:06:57;16.00;99.90
51839;DHT22;37886;53.174;6.368;2022-07-29T06:09:23;16.00;99.90
51839;DHT22;37886;53.174;6.368;2022-07-29T06:11:48;16.10;99.90
51839;DHT22;37886;53.174;6.368;2022-07-29T06:14:14;16.20;99.90
51839;DHT22;37886;53.174;6.368;2022-07-29T06:16:40;16.20;99.90
51839;DHT22;37886;53.174;6.368;2022-07-29T06:19:06;16.20;99.90
51839;DHT22;37886;53.174;6.368;2022-07-29T06:21:32;16.30;99.90
51839;DHT22;37886;53.174;6.368;2022-07-29T06:23:59;16.50;99.90
51839;DHT22;37886;53.174;6.368;2022-07-29T06:26:24;16.50;99.90
51839;DHT22;37886;53.174;6.368;2022-07-29T06:28:50;16.60;99.90
51839;DHT22;37886;53.174;6.368;2022-07-29T06:31:16;16.70;99.90
51839;DHT22;37886;53.174;6.368;2022-07-29T06:33:42;16.70;99.90
51839;DHT22;37886;53.174;6.368;2022-07-29T06:36:08;16.90;99.90
51839;DHT22;37886;53.174;6.368;2022-07-29T06:38:33;17.00;99.90
51839;DHT22;37886;53.174;6.368;2022-07-29T06:41:00;17.10;99.90
51839;DHT22;37886;53.174;6.368;2022-07-29T06:43:31;17.00;99.90
51839;DHT22;37886;53.174;6.368;2022-07-29T06:46:04;17.10;99.90
51839;DHT22;37886;53.174;6.368;2022-07-29T06:48:30;17.00;99.90
51839;DHT22;37886;53.174;6.368;2022-07-29T06:50:56;16.90;99.90
51839;DHT22;37886;53.174;6.368;2022-07-29T06:53:22;16.90;99.90
51839;DHT22;37886;53.174;6.368;2022-07-29T06:55:48;17.00;99.90
51839;DHT22;37886;53.174;6.368;2022-07-29T06:58:14;17.10;99.90
51839;DHT22;37886;53.174;6.368;2022-07-29T07:00:41;17.30;99.90
51839;DHT22;37886;53.174;6.368;2022-07-29T07:03:07;17.30;99.90
51839;DHT22;37886;53.174;6.368;2022-07-29T07:05:33;17.30;99.90
51839;DHT22;37886;53.174;6.368;2022-07-29T07:07:59;17.30;99.90
51839;DHT22;37886;53.174;6.368;2022-07-29T07:10:24;17.30;99.90
51839;DHT22;37886;53.174;6.368;2022-07-29T07:12:50;17.30;99.90
51839;DHT22;37886;53.174;6.368;2022-07-29T07:15:16;17.40;99.90
51839;DHT22;37886;53.174;6.368;2022-07-29T07:17:42;17.50;99.90
51839;DHT22;37886;53.174;6.368;2022-07-29T07:20:08;17.50;99.90
51839;DHT22;37886;53.174;6.368;2022-07-29T07:22:34;17.40;99.90
51839;DHT22;37886;53.174;6.368;2022-07-29T07:24:59;17.60;99.90
51839;DHT22;37886;53.174;6.368;2022-07-29T07:27:25;17.70;99.90
51839;DHT22;37886;53.174;6.368;2022-07-29T07:29:52;17.80;99.90
51839;DHT22;37886;53.174;6.368;2022-07-29T07:32:18;18.00;99.90
51839;DHT22;37886;53.174;6.368;2022-07-29T07:34:44;18.10;99.90
51839;DHT22;37886;53.174;6.368;2022-07-29T07:37:10;18.10;99.90
51839;DHT22;37886;53.174;6.368;2022-07-29T07:39:36;18.10;99.90
51839;DHT22;37886;53.174;6.368;2022-07-29T07:42:02;18.10;99.90
51839;DHT22;37886;53.174;6.368;2022-07-29T07:44:27;18.10;99.90
51839;DHT22;37886;53.174;6.368;2022-07-29T07:46:53;18.20;99.90
51839;DHT22;37886;53.174;6.368;2022-07-29T07:49:19;18.40;99.90
51839;DHT22;37886;53.174;6.368;2022-07-29T07:51:44;18.60;99.90
51839;DHT22;37886;53.174;6.368;2022-07-29T07:54:10;18.60;99.90
51839;DHT22;37886;53.174;6.368;2022-07-29T07:56:36;18.50;99.90
51839;DHT22;37886;53.174;6.368;2022-07-29T07:59:02;18.50;99.90
51839;DHT22;37886;53.174;6.368;2022-07-29T08:01:27;18.50;99.90
51839;DHT22;37886;53.174;6.368;2022-07-29T08:03:53;18.40;99.90
51839;DHT22;37886;53.174;6.368;2022-07-29T08:06:19;18.30;99.90
51839;DHT22;37886;53.174;6.368;2022-07-29T08:08:44;18.40;99.90
51839;DHT22;37886;53.174;6.368;2022-07-29T08:11:10;18.50;99.90
51839;DHT22;37886;53.174;6.368;2022-07-29T08:13:36;18.40;99.90
51839;DHT22;37886;53.174;6.368;2022-07-29T08:16:03;18.30;99.90
51839;DHT22;37886;53.174;6.368;2022-07-29T08:18:39;18.30;99.90
51839;DHT22;37886;53.174;6.368;2022-07-29T08:21:06;18.40;99.90
51839;DHT22;37886;53.174;6.368;2022-07-29T08:23:32;18.60;99.90
51839;DHT22;37886;53.174;6.368;2022-07-29T08:26:08;18.70;99.90
51839;DHT22;37886;53.174;6.368;2022-07-29T08:28:40;18.50;99.90
51839;DHT22;37886;53.174;6.368;2022-07-29T08:31:07;18.50;99.90
51839;DHT22;37886;53.174;6.368;2022-07-29T08:33:33;18.30;99.90
51839;DHT22;37886;53.174;6.368;2022-07-29T08:35:58;18.40;99.90
51839;DHT22;37886;53.174;6.368;2022-07-29T08:38:24;18.60;99.90
51839;DHT22;37886;53.174;6.368;2022-07-29T08:40:52;18.60;99.90
51839;DHT22;37886;53.174;6.368;2022-07-29T08:43:18;18.50;99.90
51839;DHT22;37886;53.174;6.368;2022-07-29T08:45:51;18.40;99.90
51839;DHT22;37886;53.174;6.368;2022-07-29T08:48:21;18.50;99.90
51839;DHT22;37886;53.174;6.368;2022-07-29T08:50:48;18.60;99.90
51839;DHT22;37886;53.174;6.368;2022-07-29T08:53:16;18.50;99.90
51839;DHT22;37886;53.174;6.368;2022-07-29T08:55:44;18.70;99.90
51839;DHT22;37886;53.174;6.368;2022-07-29T08:58:10;18.70;99.90
51839;DHT22;37886;53.174;6.368;2022-07-29T09:00:38;18.90;99.90
51839;DHT22;37886;53.174;6.368;2022-07-29T09:03:06;19.00;99.90
51839;DHT22;37886;53.174;6.368;2022-07-29T09:05:34;18.90;99.90
51839;DHT22;37886;53.174;6.368;2022-07-29T09:08:01;19.00;99.90
51839;DHT22;37886;53.174;6.368;2022-07-29T09:10:27;18.90;99.90
51839;DHT22;37886;53.174;6.368;2022-07-29T09:12:54;19.10;99.90
51839;DHT22;37886;53.174;6.368;2022-07-29T09:15:20;19.20;99.90
51839;DHT22;37886;53.174;6.368;2022-07-29T09:17:48;19.30;99.90
51839;DHT22;37886;53.174;6.368;2022-07-29T09:20:17;19.40;99.90
51839;DHT22;37886;53.174;6.368;2022-07-29T09:22:43;19.40;99.90
51839;DHT22;37886;53.174;6.368;2022-07-29T09:25:11;19.40;99.90
51839;DHT22;37886;53.174;6.368;2022-07-29T09:27:37;19.60;99.90
51839;DHT22;37886;53.174;6.368;2022-07-29T09:30:09;19.80;99.90
51839;DHT22;37886;53.174;6.368;2022-07-29T09:32:55;20.00;99.90
51839;DHT22;37886;53.174;6.368;2022-07-29T09:35:24;20.10;99.90
51839;DHT22;37886;53.174;6.368;2022-07-29T09:37:50;20.40;99.90
51839;DHT22;37886;53.174;6.368;2022-07-29T09:40:19;20.20;99.90
51839;DHT22;37886;53.174;6.368;2022-07-29T09:42:45;20.20;99.90
51839;DHT22;37886;53.174;6.368;2022-07-29T09:45:12;20.50;99.90
51839;DHT22;37886;53.174;6.368;2022-07-29T09:47:47;20.60;99.90
51839;DHT22;37886;53.174;6.368;2022-07-29T09:50:15;20.50;99.90
51839;DHT22;37886;53.174;6.368;2022-07-29T09:52:48;20.50;99.90
51839;DHT22;37886;53.174;6.368;2022-07-29T09:55:15;20.40;99.90
51839;DHT22;37886;53.174;6.368;2022-07-29T09:57:41;20.40;99.90
51839;DHT22;37886;53.174;6.368;2022-07-29T10:00:13;20.20;99.90
51839;DHT22;37886;53.174;6.368;2022-07-29T10:02:41;20.00;99.90
51839;DHT22;37886;53.174;6.368;2022-07-29T10:05:26;20.00;99.90
51839;DHT22;37886;53.174;6.368;2022-07-29T10:07:55;20.00;99.90
51839;DHT22;37886;53.174;6.368;2022-07-29T10:10:33;19.90;99.90
51839;DHT22;37886;53.174;6.368;2022-07-29T10:13:02;20.10;99.90
51839;DHT22;37886;53.174;6.368;2022-07-29T10:15:30;20.10;99.90
51839;DHT22;37886;53.174;6.368;2022-07-29T10:17:58;20.20;99.90
51839;DHT22;37886;53.174;6.368;2022-07-29T10:20:25;20.40;99.90
51839;DHT22;37886;53.174;6.368;2022-07-29T10:22:52;20.70;99.90
51839;DHT22;37886;53.174;6.368;2022-07-29T10:25:18;20.80;99.90
51839;DHT22;37886;53.174;6.368;2022-07-29T10:27:45;20.70;99.90
51839;DHT22;37886;53.174;6.368;2022-07-29T10:30:13;20.70;99.90
51839;DHT22;37886;53.174;6.368;2022-07-29T10:33:06;20.70;99.90
51839;DHT22;37886;53.174;6.368;2022-07-29T10:35:44;20.60;99.90
51839;DHT22;37886;53.174;6.368;2022-07-29T10:38:29;20.60;99.90
51839;DHT22;37886;53.174;6.368;2022-07-29T10:43:53;20.60;99.90
51839;DHT22;37886;53.174;6.368;2022-07-29T10:46:20;20.70;99.90
51839;DHT22;37886;53.174;6.368;2022-07-29T10:49:11;20.50;99.90
51839;DHT22;37886;53.174;6.368;2022-07-29T10:54:38;20.50;99.90
51839;DHT22;37886;53.174;6.368;2022-07-29T11:05:12;21.80;99.90
51839;DHT22;37886;53.174;6.368;2022-07-29T11:07:40;22.20;99.90
51839;DHT22;37886;53.174;6.368;2022-07-29T11:10:24;22.30;99.90
51839;DHT22;37886;53.174;6.368;2022-07-29T11:12:53;22.30;99.90
51839;DHT22;37886;53.174;6.368;2022-07-29T11:15:21;22.60;99.90
51839;DHT22;37886;53.174;6.368;2022-07-29T11:20:48;22.70;99.90
51839;DHT22;37886;53.174;6.368;2022-07-29T11:23:31;22.50;99.90
51839;DHT22;37886;53.174;6.368;2022-07-29T11:28:39;22.20;99.90
51839;DHT22;37886;53.174;6.368;2022-07-29T11:31:09;21.90;99.90
51839;DHT22;37886;53.174;6.368;2022-07-29T11:33:35;21.70;99.90
51839;DHT22;37886;53.174;6.368;2022-07-29T11:38:34;21.60;99.90
51839;DHT22;37886;53.174;6.368;2022-07-29T11:41:22;21.60;99.90
51839;DHT22;37886;53.174;6.368;2022-07-29T11:43:59;21.70;99.90
51839;DHT22;37886;53.174;6.368;2022-07-29T11:49:12;21.50;99.90
51839;DHT22;37886;53.174;6.368;2022-07-29T11:51:38;21.40;99.90
51839;DHT22;37886;53.174;6.368;2022-07-29T11:54:05;21.40;99.90
51839;DHT22;37886;53.174;6.368;2022-07-29T11:56:34;21.30;99.90
51839;DHT22;37886;53.174;6.368;2022-07-29T11:59:05;21.30;99.90
51839;DHT22;37886;53.174;6.368;2022-07-29T12:01:32;21.50;99.90
51839;DHT22;37886;53.174;6.368;2022-07-29T12:04:05;21.70;99.90
51839;DHT22;37886;53.174;6.368;2022-07-29T12:06:33;22.20;99.90
51839;DHT22;37886;53.174;6.368;2022-07-29T12:08:58;22.30;99.90
51839;DHT22;37886;53.174;6.368;2022-07-29T12:11:26;22.30;99.90
51839;DHT22;37886;53.174;6.368;2022-07-29T12:13:52;22.30;99.90
51839;DHT22;37886;53.174;6.368;2022-07-29T12:16:19;22.70;99.90
51839;DHT22;37886;53.174;6.368;2022-07-29T12:18:59;22.70;99.90
51839;DHT22;37886;53.174;6.368;2022-07-29T12:21:25;22.90;99.90
51839;DHT22;37886;53.174;6.368;2022-07-29T12:23:55;23.20;99.90
51839;DHT22;37886;53.174;6.368;2022-07-29T12:26:21;23.80;99.90
51839;DHT22;37886;53.174;6.368;2022-07-29T12:28:47;24.30;99.90
51839;DHT22;37886;53.174;6.368;2022-07-29T12:31:14;24.20;99.70
51839;DHT22;37886;53.174;6.368;2022-07-29T12:33:40;24.10;99.50
51839;DHT22;37886;53.174;6.368;2022-07-29T12:36:07;24.00;99.90
51839;DHT22;37886;53.174;6.368;2022-07-29T12:38:36;24.30;99.90
51839;DHT22;37886;53.174;6.368;2022-07-29T12:41:05;24.80;99.90
51839;DHT22;37886;53.174;6.368;2022-07-29T12:43:33;24.80;99.60
51839;DHT22;37886;53.174;6.368;2022-07-29T12:46:14;25.00;99.60
51839;DHT22;37886;53.174;6.368;2022-07-29T12:48:41;25.40;98.20
51839;DHT22;37886;53.174;6.368;2022-07-29T12:51:08;25.70;99.00
51839;DHT22;37886;53.174;6.368;2022-07-29T12:53:36;25.70;98.40
51839;DHT22;37886;53.174;6.368;2022-07-29T12:56:03;26.10;98.40
51839;DHT22;37886;53.174;6.368;2022-07-29T12:58:35;26.80;97.00
51839;DHT22;37886;53.174;6.368;2022-07-29T13:01:21;26.60;96.60
51839;DHT22;37886;53.174;6.368;2022-07-29T13:03:51;26.70;97.10
51839;DHT22;37886;53.174;6.368;2022-07-29T13:06:41;26.50;96.60
51839;DHT22;37886;53.174;6.368;2022-07-29T13:09:12;26.30;96.60
51839;DHT22;37886;53.174;6.368;2022-07-29T13:11:52;26.70;97.40
51839;DHT22;37886;53.174;6.368;2022-07-29T13:17:07;27.10;94.90
51839;DHT22;37886;53.174;6.368;2022-07-29T13:19:53;27.00;95.60
51839;DHT22;37886;53.174;6.368;2022-07-29T13:22:29;26.70;94.90
51839;DHT22;37886;53.174;6.368;2022-07-29T13:24:57;26.10;95.50
51839;DHT22;37886;53.174;6.368;2022-07-29T13:27:27;25.90;95.60
51839;DHT22;37886;53.174;6.368;2022-07-29T13:29:54;26.00;95.70
51839;DHT22;37886;53.174;6.368;2022-07-29T13:32:22;26.50;95.20
51839;DHT22;37886;53.174;6.368;2022-07-29T13:34:48;26.20;95.50
51839;DHT22;37886;53.174;6.368;2022-07-29T13:37:14;26.50;95.60
51839;DHT22;37886;53.174;6.368;2022-07-29T13:39:40;27.10;94.70
51839;DHT22;37886;53.174;6.368;2022-07-29T13:42:07;27.50;94.20
51839;DHT22;37886;53.174;6.368;2022-07-29T13:44:34;27.20;93.70
51839;DHT22;37886;53.174;6.368;2022-07-29T13:47:00;27.30;93.80
51839;DHT22;37886;53.174;6.368;2022-07-29T13:49:26;27.80;93.60
51839;DHT22;37886;53.174;6.368;2022-07-29T13:51:53;27.40;92.90
51839;DHT22;37886;53.174;6.368;2022-07-29T13:54:19;27.40;92.70
51839;DHT22;37886;53.174;6.368;2022-07-29T13:56:45;27.90;92.60
51839;DHT22;37886;53.174;6.368;2022-07-29T13:59:10;27.80;92.90
51839;DHT22;37886;53.174;6.368;2022-07-29T14:01:36;28.00;92.70
51839;DHT22;37886;53.174;6.368;2022-07-29T14:04:02;27.50;92.70
51839;DHT22;37886;53.174;6.368;2022-07-29T14:06:28;26.00;93.20
51839;DHT22;37886;53.174;6.368;2022-07-29T14:08:54;25.40;94.00
51839;DHT22;37886;53.174;6.368;2022-07-29T14:11:20;25.20;94.60
51839;DHT22;37886;53.174;6.368;2022-07-29T14:13:46;25.60;94.50
51839;DHT22;37886;53.174;6.368;2022-07-29T14:16:12;25.60;94.50
51839;DHT22;37886;53.174;6.368;2022-07-29T14:18:37;25.80;94.90
51839;DHT22;37886;53.174;6.368;2022-07-29T14:21:03;26.80;94.20
51839;DHT22;37886;53.174;6.368;2022-07-29T14:23:29;27.90;93.10
51839;DHT22;37886;53.174;6.368;2022-07-29T14:25:55;28.50;92.10
51839;DHT22;37886;53.174;6.368;2022-07-29T14:28:21;27.80;92.00
51839;DHT22;37886;53.174;6.368;2022-07-29T14:30:46;27.00;92.10
51839;DHT22;37886;53.174;6.368;2022-07-29T14:33:12;26.40;92.40
51839;DHT22;37886;53.174;6.368;2022-07-29T14:35:38;26.10;93.40
51839;DHT22;37886;53.174;6.368;2022-07-29T14:38:04;26.10;93.70
51839;DHT22;37886;53.174;6.368;2022-07-29T14:40:30;26.80;93.10
51839;DHT22;37886;53.174;6.368;2022-07-29T14:42:56;27.00;92.80
51839;DHT22;37886;53.174;6.368;2022-07-29T14:45:22;27.20;92.60
51839;DHT22;37886;53.174;6.368;2022-07-29T14:47:48;27.20;92.60
51839;DHT22;37886;53.174;6.368;2022-07-29T14:50:15;27.60;92.30
51839;DHT22;37886;53.174;6.368;2022-07-29T14:52:41;27.50;91.70
51839;DHT22;37886;53.174;6.368;2022-07-29T14:55:08;27.60;91.20
51839;DHT22;37886;53.174;6.368;2022-07-29T14:57:34;28.10;91.70
51839;DHT22;37886;53.174;6.368;2022-07-29T15:00:00;28.10;91.30
51839;DHT22;37886;53.174;6.368;2022-07-29T15:02:26;26.90;91.40
51839;DHT22;37886;53.174;6.368;2022-07-29T15:04:52;26.80;91.90
51839;DHT22;37886;53.174;6.368;2022-07-29T15:07:17;26.60;92.30
51839;DHT22;37886;53.174;6.368;2022-07-29T15:09:43;26.30;92.00
51839;DHT22;37886;53.174;6.368;2022-07-29T15:12:10;25.90;92.30
51839;DHT22;37886;53.174;6.368;2022-07-29T15:14:36;25.70;92.80
51839;DHT22;37886;53.174;6.368;2022-07-29T15:17:02;25.60;92.90
51839;DHT22;37886;53.174;6.368;2022-07-29T15:19:28;25.80;92.50
51839;DHT22;37886;53.174;6.368;2022-07-29T15:21:54;26.00;92.20
51839;DHT22;37886;53.174;6.368;2022-07-29T15:24:20;26.50;92.00
51839;DHT22;37886;53.174;6.368;2022-07-29T15:26:46;26.80;91.30
51839;DHT22;37886;53.174;6.368;2022-07-29T15:29:12;27.10;91.80
51839;DHT22;37886;53.174;6.368;2022-07-29T15:31:38;26.90;91.20
51839;DHT22;37886;53.174;6.368;2022-07-29T15:34:04;26.50;91.30
51839;DHT22;37886;53.174;6.368;2022-07-29T15:36:30;26.00;91.20
51839;DHT22;37886;53.174;6.368;2022-07-29T15:38:56;26.10;91.00
51839;DHT22;37886;53.174;6.368;2022-07-29T15:41:22;26.40;91.10
51839;DHT22;37886;53.174;6.368;2022-07-29T15:43:48;26.50;91.40
51839;DHT22;37886;53.174;6.368;2022-07-29T15:46:18;26.50;91.40
51839;DHT22;37886;53.174;6.368;2022-07-29T15:49:04;26.70;91.60
51839;DHT22;37886;53.174;6.368;2022-07-29T15:51:30;26.30;91.70
51839;DHT22;37886;53.174;6.368;2022-07-29T15:53:56;26.30;91.60
51839;DHT22;37886;53.174;6.368;2022-07-29T15:56:22;26.50;91.70
51839;DHT22;37886;53.174;6.368;2022-07-29T15:58:48;26.30;91.90
51839;DHT22;37886;53.174;6.368;2022-07-29T16:01:14;26.20;92.30
51839;DHT22;37886;53.174;6.368;2022-07-29T16:03:40;25.50;92.50
51839;DHT22;37886;53.174;6.368;2022-07-29T16:06:06;25.40;92.60
51839;DHT22;37886;53.174;6.368;2022-07-29T16:08:31;25.60;92.20
51839;DHT22;37886;53.174;6.368;2022-07-29T16:10:57;25.70;92.20
51839;DHT22;37886;53.174;6.368;2022-07-29T16:13:23;25.70;92.00
51839;DHT22;37886;53.174;6.368;2022-07-29T16:15:49;25.30;92.20
51839;DHT22;37886;53.174;6.368;2022-07-29T16:18:14;25.10;92.30
51839;DHT22;37886;53.174;6.368;2022-07-29T16:20:41;24.90;92.50